Time;durP1;ratioP1;P1;durP2;ratioP2;P2;SDS_P1;SDS_P2;PMS_P1;PMS_P2;Temp;Humidity;BMP_temperature;BMP_pressure;BME280_temperature;BME280_humidity;BME280_pressure;Samples;Min_cycle;Max_cycle;Signal;HPM_P1;HPM_P2
2022/10/18 00:00:52;;;;;;;21.00;18.90;;;16.20;99.90;;;;;;5042683;28;20232;-78
2022/10/18 00:03:18;;;;;;;21.58;19.42;;;16.20;1.00;;;;;;5038386;28;20685;-79
2022/10/18 00:05:43;;;;;;;22.38;19.50;;;16.20;1.00;;;;;;5045038;28;20194;-79
2022/10/18 00:08:09;;;;;;;20.73;18.58;;;16.20;99.90;;;;;;5042640;28;20198;-79
2022/10/18 00:10:34;;;;;;;23.42;19.73;;;16.10;99.90;;;;;;5043774;28;20196;-79
2022/10/18 00:13:00;;;;;;;22.27;19.98;;;16.10;99.90;;;;;;5040546;28;20657;-79
2022/10/18 00:15:25;;;;;;;22.08;19.88;;;16.10;99.90;;;;;;5044113;28;20183;-78
2022/10/18 00:17:51;;;;;;;21.60;19.40;;;16.10;99.90;;;;;;5041632;28;20174;-79
2022/10/18 00:20:17;;;;;;;23.25;20.92;;;16.10;1.00;;;;;;5041361;28;20305;-79
2022/10/18 00:22:42;;;;;;;21.33;19.13;;;16.10;1.00;;;;;;5041110;28;20750;-78
2022/10/18 00:25:09;;;;;;;24.75;21.17;;;16.00;1.00;;;;;;5042923;28;20210;-79
2022/10/18 00:27:35;;;;;;;24.73;20.60;;;16.00;68.60;;;;;;5043543;28;20668;-79
2022/10/18 00:30:00;;;;;;;21.35;19.13;;;16.00;31.60;;;;;;5043053;28;20179;-79
2022/10/18 00:32:26;;;;;;;22.63;20.23;;;15.90;70.80;;;;;;5041688;28;20194;-79
2022/10/18 00:34:52;;;;;;;22.35;18.83;;;16.00;1.00;;;;;;5039688;28;20222;-78
2022/10/18 00:37:18;;;;;;;22.52;20.20;;;15.90;1.00;;;;;;5041048;28;20187;-78
2022/10/18 00:39:44;;;;;;;25.52;21.50;;;15.90;1.00;;;;;;5041625;28;20202;-77
2022/10/18 00:42:16;;;;;;;26.77;23.95;;;15.90;99.90;;;;;;5042072;28;20553;-77
2022/10/18 00:44:42;;;;;;;27.17;23.50;;;15.90;99.90;;;;;;5041521;28;20199;-77
2022/10/18 00:47:10;;;;;;;26.13;22.23;;;15.80;1.00;;;;;;5041731;28;20233;-80
2022/10/18 00:49:47;;;;;;;27.80;21.42;;;16.00;1.00;;;;;;5042136;28;20182;-78
2022/10/18 00:52:17;;;;;;;29.27;23.38;;;16.00;99.90;;;;;;5040096;28;20186;-79
2022/10/18 00:54:46;;;;;;;24.83;22.00;;;16.00;17.20;;;;;;5041766;28;20247;-80
2022/10/18 00:57:13;;;;;;;24.30;21.70;;;16.00;1.00;;;;;;5041440;28;20197;-79
2022/10/18 00:59:40;;;;;;;23.63;20.70;;;16.00;1.00;;;;;;5040281;28;20198;-78
2022/10/18 01:02:06;;;;;;;27.38;21.98;;;15.90;1.00;;;;;;5039248;28;20200;-79
2022/10/18 01:04:31;;;;;;;21.90;19.55;;;15.90;1.00;;;;;;5038880;28;20337;-80
2022/10/18 01:07:35;;;;;;;23.75;21.30;;;15.90;1.00;;;;;;5041082;28;20203;-79
2022/10/18 01:10:19;;;;;;;21.25;19.05;;;15.50;1.00;;;;;;4982443;28;20245;-79
2022/10/18 01:12:53;;;;;;;23.67;21.20;;;15.80;99.90;;;;;;5037876;28;20614;-79
2022/10/18 01:15:30;;;;;;;20.85;18.33;;;15.80;99.90;;;;;;5038978;28;20221;-78
2022/10/18 01:18:10;;;;;;;21.20;18.75;;;15.70;1.00;;;;;;5057325;28;20205;-79
2022/10/18 01:21:08;;;;;;;20.67;18.35;;;15.70;99.90;;;;;;5040079;28;20205;-79
2022/10/18 01:24:01;;;;;;;19.42;17.13;;;15.80;99.90;;;;;;4973298;28;20297;-79
2022/10/18 01:26:51;;;;;;;21.45;18.30;;;15.70;1.00;;;;;;5041023;28;20178;-79
2022/10/18 01:29:36;;;;;;;22.15;19.85;;;15.70;1.00;;;;;;5039611;28;20686;-78
2022/10/18 01:32:08;;;;;;;25.70;20.88;;;15.70;1.00;;;;;;5042652;28;20605;-77
2022/10/18 01:34:36;;;;;;;28.23;22.92;;;15.70;1.00;;;;;;5041040;28;20230;-78
2022/10/18 01:37:07;;;;;;;28.33;22.42;;;15.70;1.00;;;;;;5042322;28;20185;-78
2022/10/18 01:39:37;;;;;;;27.02;22.48;;;15.80;99.90;;;;;;5037993;28;20252;-79
2022/10/18 01:42:07;;;;;;;31.88;25.88;;;15.70;1.00;;;;;;5039318;28;20278;-79
2022/10/18 01:44:33;;;;;;;24.65;22.02;;;15.70;1.00;;;;;;5041161;28;20198;-79
2022/10/18 01:47:00;;;;;;;35.10;25.90;;;15.70;99.90;;;;;;5040995;28;20190;-79
2022/10/18 01:49:26;;;;;;;30.00;24.83;;;15.70;99.90;;;;;;5040902;28;20189;-79
2022/10/18 01:51:52;;;;;;;25.23;21.67;;;15.70;99.90;;;;;;5060773;22;20175;-76
2022/10/18 01:57:32;;;;;;;28.77;23.27;;;15.60;99.90;;;;;;5029375;28;20214;-76
2022/10/18 02:00:17;;;;;;;27.83;23.65;;;15.70;99.90;;;;;;5032519;28;20700;-78
2022/10/18 02:03:03;;;;;;;23.70;21.27;;;15.70;1.00;;;;;;5035486;28;20178;-78
2022/10/18 02:05:45;;;;;;;25.58;21.77;;;15.70;1.00;;;;;;5033822;28;20316;-77
2022/10/18 02:08:44;;;;;;;24.50;20.90;;;15.70;1.00;;;;;;5018179;28;20274;-78
2022/10/18 02:11:12;;;;;;;24.35;21.80;;;15.60;1.00;;;;;;5018230;28;20205;-78
2022/10/18 02:13:44;;;;;;;25.63;21.77;;;15.60;78.50;;;;;;5018794;28;20203;-77
2022/10/18 02:16:15;;;;;;;26.05;22.77;;;15.60;99.90;;;;;;5018207;28;20197;-76
2022/10/18 02:18:47;;;;;;;26.20;22.38;;;15.60;99.90;;;;;;5018583;28;20663;-75
2022/10/18 02:21:17;;;;;;;28.65;23.80;;;15.60;1.00;;;;;;5016210;28;20221;-77
2022/10/18 02:23:45;;;;;;;35.47;28.10;;;15.50;99.90;;;;;;5032688;28;20194;-78
2022/10/18 02:26:12;;;;;;;27.23;22.65;;;15.50;1.00;;;;;;5016186;28;20655;-78
2022/10/18 02:28:38;;;;;;;34.65;26.95;;;15.50;1.00;;;;;;5017681;28;20232;-77
2022/10/18 02:31:25;;;;;;;33.35;27.05;;;15.50;99.90;;;;;;5018581;28;20183;-79
2022/10/18 02:34:11;;;;;;;37.25;30.42;;;15.40;1.00;;;;;;5017987;28;20252;-76
2022/10/18 02:36:51;;;;;;;39.97;32.97;;;15.40;99.90;;;;;;5019100;28;20249;-76
2022/10/18 02:39:28;;;;;;;35.70;29.23;;;15.40;2.20;;;;;;5018870;28;20266;-76
2022/10/18 02:41:54;;;;;;;35.75;31.33;;;15.40;1.00;;;;;;5017763;28;20233;-77
2022/10/18 02:44:20;;;;;;;31.20;27.25;;;15.40;1.00;;;;;;5031863;28;20210;-76
2022/10/18 02:46:47;;;;;;;24.77;22.10;;;15.40;1.00;;;;;;5017781;28;20179;-79
2022/10/18 02:49:12;;;;;;;25.90;22.90;;;15.40;1.00;;;;;;5032939;28;20179;-77
2022/10/18 02:51:38;;;;;;;27.60;22.65;;;15.30;1.00;;;;;;5017469;28;20601;-78
2022/10/18 02:54:04;;;;;;;23.98;21.48;;;15.40;99.90;;;;;;5016976;28;20199;-78
2022/10/18 02:56:30;;;;;;;25.02;20.58;;;15.30;99.90;;;;;;5033520;28;20203;-76
2022/10/18 02:58:55;;;;;;;23.98;19.92;;;15.30;99.90;;;;;;5016448;28;20206;-77
2022/10/18 03:01:21;;;;;;;22.55;20.25;;;15.30;1.00;;;;;;5017089;28;20219;-77
2022/10/18 03:03:47;;;;;;;21.70;19.23;;;15.30;1.00;;;;;;5016018;28;20202;-79
2022/10/18 03:06:12;;;;;;;21.83;19.48;;;15.30;1.00;;;;;;5018278;28;20192;-79
2022/10/18 03:08:38;;;;;;;21.55;19.35;;;15.30;1.00;;;;;;5017204;28;20186;-77
2022/10/18 03:11:04;;;;;;;20.83;18.63;;;15.30;1.00;;;;;;5017934;28;20668;-76
2022/10/18 03:13:29;;;;;;;21.02;18.88;;;15.30;1.00;;;;;;5018585;28;20211;-78
2022/10/18 03:15:55;;;;;;;23.23;20.17;;;15.30;1.00;;;;;;5018212;28;20270;-80
2022/10/18 03:18:20;;;;;;;21.90;19.63;;;15.20;97.50;;;;;;5019205;28;20308;-76
2022/10/18 03:20:46;;;;;;;21.00;18.70;;;15.20;99.90;;;;;;5018437;28;20730;-77
2022/10/18 03:23:12;;;;;;;20.65;18.35;;;15.20;99.90;;;;;;5017591;28;20179;-77
2022/10/18 03:25:37;;;;;;;20.50;18.30;;;15.20;99.90;;;;;;5019485;28;20542;-80
2022/10/18 03:28:03;;;;;;;19.55;17.65;;;15.20;99.90;;;;;;5017005;28;20679;-78
2022/10/18 03:30:28;;;;;;;22.80;19.25;;;15.20;99.90;;;;;;5017870;28;20287;-77
2022/10/18 03:32:54;;;;;;;21.58;19.23;;;15.10;1.00;;;;;;5015447;28;20188;-76
2022/10/18 03:35:20;;;;;;;19.13;17.10;;;15.10;1.00;;;;;;5016746;28;20285;-78
2022/10/18 03:37:45;;;;;;;21.05;18.58;;;15.10;1.00;;;;;;5032447;28;20183;-78
2022/10/18 03:40:11;;;;;;;20.20;18.05;;;15.10;1.00;;;;;;5017634;28;20215;-78
2022/10/18 03:42:37;;;;;;;20.05;17.77;;;15.10;1.00;;;;;;5017201;28;20233;-77
2022/10/18 03:45:03;;;;;;;21.08;18.48;;;15.10;2.60;;;;;;5030600;28;20683;-78
2022/10/18 03:47:29;;;;;;;21.17;18.90;;;15.00;1.00;;;;;;5017392;28;20655;-78
2022/10/18 03:49:54;;;;;;;20.42;18.30;;;15.00;70.00;;;;;;5017655;28;20277;-79
2022/10/18 03:52:20;;;;;;;22.05;18.17;;;15.00;99.90;;;;;;5016836;28;20194;-79
2022/10/18 03:54:45;;;;;;;19.08;16.85;;;15.00;1.00;;;;;;5016511;28;20211;-77
2022/10/18 03:57:11;;;;;;;18.65;16.75;;;14.90;1.00;;;;;;5015015;28;20533;-78
2022/10/18 03:59:37;;;;;;;20.60;18.30;;;14.90;99.90;;;;;;5032657;28;20687;-77
2022/10/18 04:02:02;;;;;;;19.63;17.73;;;14.90;99.90;;;;;;5016501;28;20248;-77
2022/10/18 04:04:28;;;;;;;19.42;17.42;;;14.80;99.90;;;;;;5014410;28;20570;-78
2022/10/18 04:06:53;;;;;;;19.23;17.05;;;14.90;99.90;;;;;;5016867;28;20699;-77
2022/10/18 04:09:19;;;;;;;20.10;18.00;;;14.80;99.90;;;;;;5016010;28;20187;-77
2022/10/18 04:11:45;;;;;;;20.17;17.92;;;14.80;99.90;;;;;;5016583;28;20183;-76
2022/10/18 04:14:10;;;;;;;20.00;17.90;;;14.90;99.90;;;;;;5030678;28;20249;-78
2022/10/18 04:16:36;;;;;;;25.73;21.33;;;14.90;99.90;;;;;;5016961;28;20568;-77
2022/10/18 04:19:01;;;;;;;21.20;19.00;;;14.80;99.90;;;;;;5014851;28;20198;-78
2022/10/18 04:21:27;;;;;;;22.38;19.83;;;14.80;1.00;;;;;;5015554;28;20176;-76
2022/10/18 04:23:52;;;;;;;21.13;18.92;;;14.80;99.90;;;;;;5015520;28;20692;-80
2022/10/18 04:26:18;;;;;;;22.80;20.30;;;14.80;99.90;;;;;;5016110;28;20182;-76
2022/10/18 04:28:44;;;;;;;23.65;19.70;;;14.80;99.90;;;;;;5015646;28;20205;-78
2022/10/18 04:31:10;;;;;;;20.35;18.15;;;14.80;99.90;;;;;;5013733;28;20187;-76
2022/10/18 04:33:36;;;;;;;20.27;16.48;;;14.80;99.90;;;;;;5014777;28;20355;-78
2022/10/18 04:36:02;;;;;;;21.00;17.70;;;14.80;1.00;;;;;;5015680;28;20630;-79
2022/10/18 04:38:28;;;;;;;19.17;17.17;;;14.80;8.40;;;;;;5022278;28;20183;-78
2022/10/18 04:40:54;;;;;;;20.20;18.05;;;14.80;72.20;;;;;;5014458;28;20661;-76
2022/10/18 04:43:19;;;;;;;21.90;19.05;;;14.80;1.00;;;;;;5015251;28;20647;-78
2022/10/18 04:45:46;;;;;;;22.35;19.67;;;14.80;1.00;;;;;;5016310;28;20540;-79
2022/10/18 04:48:13;;;;;;;21.10;18.90;;;14.80;99.90;;;;;;5016032;28;20183;-76
2022/10/18 04:50:39;;;;;;;20.65;17.92;;;14.80;99.90;;;;;;5015097;28;20640;-77
2022/10/18 04:53:04;;;;;;;19.15;16.67;;;14.90;99.90;;;;;;5016251;28;20241;-77
2022/10/18 04:55:30;;;;;;;19.67;16.08;;;14.90;81.20;;;;;;5015083;28;20199;-78
2022/10/18 04:57:55;;;;;;;20.48;17.92;;;14.90;1.00;;;;;;5015732;28;20326;-78
2022/10/18 05:00:21;;;;;;;18.95;16.52;;;14.90;99.90;;;;;;5013459;28;20203;-79
2022/10/18 05:02:47;;;;;;;17.70;15.80;;;14.90;1.00;;;;;;5015562;28;20190;-77
2022/10/18 05:05:12;;;;;;;20.92;18.02;;;14.90;1.00;;;;;;5014045;28;20215;-76
2022/10/18 05:07:38;;;;;;;19.60;17.63;;;15.00;1.00;;;;;;5016149;28;21083;-76
2022/10/18 05:10:04;;;;;;;19.25;17.25;;;15.00;1.00;;;;;;5015508;28;20678;-76
2022/10/18 05:12:29;;;;;;;17.80;16.00;;;15.00;1.00;;;;;;5014807;28;20194;-79
2022/10/18 05:14:55;;;;;;;20.20;18.00;;;15.00;99.90;;;;;;5015037;28;20241;-77
2022/10/18 05:17:21;;;;;;;18.52;16.52;;;15.10;99.90;;;;;;5030030;28;20179;-77
2022/10/18 05:19:46;;;;;;;20.52;17.90;;;15.00;1.00;;;;;;5014549;28;20282;-79
2022/10/18 05:22:12;;;;;;;19.98;17.55;;;15.00;1.00;;;;;;5016478;28;20179;-78
2022/10/18 05:24:37;;;;;;;18.55;16.60;;;15.00;37.40;;;;;;5015438;28;20223;-76
2022/10/18 05:27:03;;;;;;;17.83;16.02;;;15.00;46.00;;;;;;5015882;28;20250;-79
2022/10/18 05:29:29;;;;;;;19.20;17.20;;;15.00;31.30;;;;;;5015968;28;20230;-79
2022/10/18 05:31:54;;;;;;;21.50;18.70;;;14.90;22.30;;;;;;5017619;28;20179;-79
2022/10/18 05:34:20;;;;;;;19.80;16.55;;;15.00;28.90;;;;;;5030027;28;20206;-79
2022/10/18 05:36:48;;;;;;;19.80;17.70;;;15.00;99.90;;;;;;5030554;28;20183;-77
2022/10/18 05:39:14;;;;;;;19.27;17.30;;;15.10;99.90;;;;;;5015648;28;20214;-77
2022/10/18 05:41:39;;;;;;;28.48;24.10;;;15.00;99.90;;;;;;5016365;28;20175;-78
2022/10/18 05:44:05;;;;;;;29.70;24.67;;;15.00;99.90;;;;;;5015751;28;20272;-78
2022/10/18 05:46:31;;;;;;;30.10;25.35;;;15.00;99.90;;;;;;5016335;28;20183;-78
2022/10/18 05:48:57;;;;;;;30.83;26.13;;;15.00;99.90;;;;;;5015961;28;20195;-79
2022/10/18 05:51:22;;;;;;;29.00;24.95;;;15.00;99.90;;;;;;5016435;28;20206;-80
2022/10/18 05:53:48;;;;;;;28.45;23.80;;;15.00;99.90;;;;;;5031082;28;20298;-78
2022/10/18 05:56:13;;;;;;;27.67;22.90;;;15.00;1.00;;;;;;5030539;28;20200;-78
2022/10/18 05:58:40;;;;;;;25.02;19.65;;;15.00;21.70;;;;;;5032185;28;20245;-78
2022/10/18 06:01:07;;;;;;;23.45;20.60;;;14.90;99.90;;;;;;5014012;28;20208;-77
2022/10/18 06:03:33;;;;;;;23.10;19.15;;;14.90;99.90;;;;;;5015001;28;20289;-78
2022/10/18 06:05:59;;;;;;;22.48;19.45;;;14.90;99.90;;;;;;5016060;28;20637;-78
2022/10/18 06:08:25;;;;;;;21.02;18.55;;;14.90;99.90;;;;;;5016644;28;20179;-78
2022/10/18 06:10:51;;;;;;;20.55;17.50;;;14.90;99.90;;;;;;5016399;28;20588;-77
2022/10/18 06:13:16;;;;;;;21.15;17.58;;;14.90;99.90;;;;;;5014763;28;20249;-79
2022/10/18 06:15:42;;;;;;;19.13;16.55;;;14.80;99.90;;;;;;5030864;28;20179;-77
2022/10/18 06:18:07;;;;;;;19.33;17.23;;;14.80;50.40;;;;;;5014818;28;20225;-77
2022/10/18 06:20:33;;;;;;;20.00;17.77;;;14.80;1.00;;;;;;5016026;28;20199;-76
2022/10/18 06:22:58;;;;;;;18.52;16.63;;;14.80;1.00;;;;;;5014603;28;20282;-78
2022/10/18 06:25:24;;;;;;;20.88;17.90;;;14.80;1.00;;;;;;5016097;28;20245;-79
2022/10/18 06:27:49;;;;;;;23.48;20.98;;;14.80;1.00;;;;;;5016496;28;20174;-76
2022/10/18 06:30:15;;;;;;;28.77;24.70;;;14.80;1.00;;;;;;5014396;28;20191;-78
2022/10/18 06:32:41;;;;;;;24.67;22.08;;;14.90;99.90;;;;;;5016252;28;20183;-79
2022/10/18 06:35:07;;;;;;;24.00;21.48;;;14.90;99.90;;;;;;5015837;28;20231;-78
2022/10/18 06:37:34;;;;;;;27.30;23.45;;;14.90;99.90;;;;;;5017939;28;20238;-76
2022/10/18 06:39:59;;;;;;;26.05;23.10;;;14.80;99.90;;;;;;5017091;28;20215;-81
2022/10/18 06:42:25;;;;;;;24.63;21.95;;;14.80;1.00;;;;;;5020518;28;20186;-82
2022/10/18 06:44:50;;;;;;;24.60;21.92;;;14.80;19.20;;;;;;5015513;28;20305;-81
2022/10/18 06:47:16;;;;;;;25.02;21.92;;;14.80;99.90;;;;;;5018933;28;20179;-83
2022/10/18 06:49:42;;;;;;;29.92;22.20;;;14.80;99.90;;;;;;5031652;28;20199;-81
2022/10/18 06:52:07;;;;;;;26.15;22.23;;;14.90;99.90;;;;;;5018476;28;20184;-81
2022/10/18 06:54:33;;;;;;;23.25;20.63;;;14.80;99.90;;;;;;5017029;28;20686;-81
2022/10/18 06:57:01;;;;;;;22.35;20.05;;;14.80;99.90;;;;;;5017314;28;20202;-82
2022/10/18 06:59:27;;;;;;;20.45;18.33;;;14.90;1.00;;;;;;5018981;28;20226;-81
2022/10/18 07:01:52;;;;;;;20.88;18.50;;;14.80;1.00;;;;;;5015723;28;20719;-82
2022/10/18 07:04:18;;;;;;;20.38;18.27;;;14.80;99.90;;;;;;5031971;28;20198;-82
2022/10/18 07:06:44;;;;;;;22.42;18.15;;;14.90;1.00;;;;;;5016540;28;20206;-81
2022/10/18 07:09:10;;;;;;;19.27;17.25;;;14.90;1.00;;;;;;5031450;28;20191;-82
2022/10/18 07:11:35;;;;;;;21.35;17.15;;;14.90;99.90;;;;;;5016535;28;20226;-81
2022/10/18 07:14:03;;;;;;;18.60;16.58;;;14.90;1.00;;;;;;5014630;28;20206;-82
2022/10/18 07:16:30;;;;;;;19.80;17.73;;;14.90;1.00;;;;;;5017011;28;20171;-81
2022/10/18 07:18:56;;;;;;;19.05;17.17;;;15.00;99.90;;;;;;5016159;28;20230;-81
2022/10/18 07:21:25;;;;;;;21.73;19.52;;;15.00;99.90;;;;;;5023917;28;20199;-82
2022/10/18 07:23:51;;;;;;;25.63;23.13;;;15.10;99.90;;;;;;5016896;28;20199;-81
2022/10/18 07:26:28;;;;;;;32.78;29.55;;;15.10;99.90;;;;;;5016532;28;20203;-82
2022/10/18 07:28:59;;;;;;;28.20;25.55;;;15.10;99.90;;;;;;5017277;28;20706;-81
2022/10/18 07:31:25;;;;;;;25.83;23.42;;;15.20;99.90;;;;;;5032461;28;20907;-82
2022/10/18 07:33:51;;;;;;;20.88;18.80;;;15.10;99.90;;;;;;5017350;28;20199;-81
2022/10/18 07:36:17;;;;;;;25.95;21.83;;;15.30;99.90;;;;;;5031713;28;20906;-81
2022/10/18 07:38:43;;;;;;;21.13;19.02;;;15.40;51.10;;;;;;5015531;28;20199;-81
2022/10/18 07:41:11;;;;;;;26.13;21.85;;;15.30;1.00;;;;;;5032704;28;20206;-81
2022/10/18 07:43:41;;;;;;;21.85;19.65;;;15.40;1.00;;;;;;5015951;28;20260;-80
2022/10/18 07:46:07;;;;;;;20.92;18.15;;;15.30;1.00;;;;;;5018724;28;20182;-79
2022/10/18 07:48:32;;;;;;;19.20;17.30;;;15.30;1.00;;;;;;5019313;28;20666;-79
2022/10/18 07:50:59;;;;;;;20.85;18.75;;;15.30;1.00;;;;;;5018196;28;20191;-79
2022/10/18 07:53:26;;;;;;;20.70;18.60;;;15.30;1.00;;;;;;5017186;28;20227;-80
2022/10/18 07:55:55;;;;;;;19.90;17.85;;;15.30;1.00;;;;;;5019327;28;20282;-79
2022/10/18 07:58:20;;;;;;;23.73;21.10;;;15.30;20.40;;;;;;5019893;28;20183;-79
2022/10/18 08:00:46;;;;;;;21.25;19.05;;;15.30;99.90;;;;;;5019835;28;20961;-81
2022/10/18 08:03:12;;;;;;;25.92;22.23;;;15.30;99.90;;;;;;5018587;28;20193;-79
2022/10/18 08:05:37;;;;;;;25.45;22.50;;;15.30;9.30;;;;;;5018860;28;20180;-78
2022/10/18 08:08:03;;;;;;;35.80;27.65;;;15.40;97.70;;;;;;5018622;28;20670;-79
2022/10/18 08:10:29;;;;;;;37.10;28.85;;;15.40;99.90;;;;;;5019205;28;20278;-77
2022/10/18 08:12:54;;;;;;;31.08;26.48;;;15.50;99.90;;;;;;5015087;28;20785;-79
2022/10/18 08:15:23;;;;;;;24.55;21.33;;;15.50;99.90;;;;;;5017345;28;20202;-78
2022/10/18 08:17:49;;;;;;;31.52;27.35;;;15.70;64.70;;;;;;5019048;28;20295;-79
2022/10/18 08:20:15;;;;;;;29.15;25.65;;;15.70;1.00;;;;;;5015603;28;20293;-82
2022/10/18 08:22:40;;;;;;;25.70;22.77;;;15.70;99.90;;;;;;5015352;28;20179;-81
2022/10/18 08:25:06;;;;;;;21.05;18.83;;;15.80;99.90;;;;;;5015033;28;20620;-82
2022/10/18 08:27:32;;;;;;;22.77;20.38;;;15.80;99.90;;;;;;5015653;28;20180;-82
2022/10/18 08:29:58;;;;;;;20.90;18.77;;;15.80;99.90;;;;;;5015467;28;20548;-81
2022/10/18 08:32:24;;;;;;;21.65;19.30;;;15.90;99.90;;;;;;5016231;28;20187;-83
2022/10/18 08:34:50;;;;;;;19.10;17.20;;;16.00;99.90;;;;;;5014492;28;20707;-82
2022/10/18 08:37:16;;;;;;;18.17;16.23;;;16.10;86.30;;;;;;5014919;28;20202;-81
2022/10/18 08:39:41;;;;;;;21.48;19.27;;;16.20;60.20;;;;;;5011877;28;20269;-83
2022/10/18 08:42:22;;;;;;;23.20;20.60;;;16.20;1.00;;;;;;5014105;28;20183;-82
2022/10/18 08:44:50;;;;;;;21.33;18.90;;;16.30;1.00;;;;;;5015936;28;20686;-84
2022/10/18 08:47:24;;;;;;;21.67;19.52;;;16.40;1.00;;;;;;5013480;28;20184;-83
2022/10/18 08:49:55;;;;;;;19.63;17.55;;;16.50;1.00;;;;;;5014630;28;20187;-83
2022/10/18 08:52:39;;;;;;;19.50;17.45;;;16.60;1.00;;;;;;5014741;28;20184;-82
2022/10/18 08:57:34;;;;;;;17.33;15.63;;;16.60;1.00;;;;;;5053955;28;20210;-81
2022/10/18 09:00:22;;;;;;;16.98;15.15;;;16.70;99.90;;;;;;5052929;28;20206;-83
2022/10/18 09:03:12;;;;;;;15.15;13.65;;;16.60;99.90;;;;;;5053539;28;20183;-82
2022/10/18 09:06:06;;;;;;;16.58;14.80;;;16.80;1.00;;;;;;5042113;28;20189;-80
2022/10/18 09:08:44;;;;;;;15.38;13.88;;;16.90;99.90;;;;;;5044502;28;20181;-78
2022/10/18 09:11:34;;;;;;;15.45;14.02;;;16.80;99.90;;;;;;5038857;28;20613;-80
2022/10/18 09:14:33;;;;;;;18.15;15.57;;;17.00;99.90;;;;;;5045453;28;20263;-81
2022/10/18 09:17:21;;;;;;;16.95;15.23;;;17.00;99.90;;;;;;5043716;28;20200;-78
2022/10/18 09:20:09;;;;;;;17.20;15.40;;;17.20;99.90;;;;;;5046416;28;20201;-76
2022/10/18 09:22:53;;;;;;;16.40;14.25;;;17.20;99.90;;;;;;5045328;28;20271;-78
2022/10/18 09:25:48;;;;;;;16.33;14.70;;;17.20;99.90;;;;;;5046782;28;20956;-81
2022/10/18 09:28:32;;;;;;;17.38;15.50;;;17.20;99.90;;;;;;5047652;28;20178;-82
2022/10/18 09:31:16;;;;;;;16.98;15.25;;;17.10;99.90;;;;;;5047050;28;20197;-82
2022/10/18 09:34:00;;;;;;;19.73;17.58;;;17.20;99.90;;;;;;5041035;28;20209;-81
2022/10/18 09:36:34;;;;;;;18.10;16.30;;;17.20;99.90;;;;;;5046859;28;20871;-77
2022/10/18 09:39:04;;;;;;;19.27;17.27;;;17.30;99.90;;;;;;5048323;28;20177;-80
2022/10/18 09:41:57;;;;;;;20.83;18.30;;;17.40;99.90;;;;;;5046640;28;20201;-80
2022/10/18 09:44:25;;;;;;;21.52;19.23;;;17.40;99.90;;;;;;5047808;28;20197;-77
2022/10/18 09:47:11;;;;;;;23.90;21.00;;;17.50;99.90;;;;;;5041540;28;20181;-78
2022/10/18 09:49:56;;;;;;;23.92;21.48;;;17.30;99.90;;;;;;5043146;28;20201;-79
2022/10/18 09:52:50;;;;;;;25.45;21.92;;;17.30;99.90;;;;;;5042691;28;20182;-78
2022/10/18 09:55:23;;;;;;;24.50;21.85;;;17.20;99.90;;;;;;5035051;28;20701;-77
2022/10/18 09:57:55;;;;;;;22.92;20.60;;;17.20;99.90;;;;;;5042436;28;20284;-79
2022/10/18 10:00:26;;;;;;;21.52;19.30;;;17.30;99.90;;;;;;5042933;28;20240;-77
2022/10/18 10:02:52;;;;;;;22.13;19.83;;;17.40;99.90;;;;;;5043225;28;20234;-78
2022/10/18 10:05:18;;;;;;;22.00;19.85;;;17.30;99.90;;;;;;5041188;28;20237;-77
2022/10/18 10:07:46;;;;;;;22.05;19.75;;;17.30;99.90;;;;;;5040970;28;20579;-78
2022/10/18 10:10:23;;;;;;;23.00;19.83;;;17.30;99.90;;;;;;5037631;28;20685;-78
2022/10/18 10:13:05;;;;;;;22.13;19.80;;;17.30;99.90;;;;;;5046689;28;20263;-79
2022/10/18 10:15:32;;;;;;;21.08;18.85;;;17.30;99.90;;;;;;5046261;28;20217;-80
2022/10/18 10:18:02;;;;;;;24.52;20.92;;;17.40;99.90;;;;;;5046228;28;20196;-79
2022/10/18 10:20:56;;;;;;;23.98;20.15;;;17.40;99.90;;;;;;5046306;28;20426;-77
2022/10/18 10:23:27;;;;;;;22.85;20.48;;;17.50;99.90;;;;;;5044118;28;20218;-77
2022/10/18 10:25:55;;;;;;;25.48;20.95;;;17.50;99.90;;;;;;5043979;28;20289;-77
2022/10/18 10:28:28;;;;;;;24.10;20.75;;;17.60;99.90;;;;;;5044650;28;20188;-77
2022/10/18 10:31:20;;;;;;;23.70;20.52;;;17.60;99.90;;;;;;5045786;28;20193;-77
2022/10/18 10:33:46;;;;;;;23.08;20.77;;;17.70;99.90;;;;;;5041997;28;20644;-84
2022/10/18 10:36:20;;;;;;;22.30;19.98;;;17.70;99.90;;;;;;5033362;28;20267;-83
2022/10/18 10:39:04;;;;;;;22.63;20.15;;;17.60;99.90;;;;;;5061045;22;20277;-86
2022/10/18 10:41:30;;;;;;;23.75;20.25;;;17.60;99.90;;;;;;5030520;28;20222;-80
2022/10/18 10:43:56;;;;;;;23.35;20.70;;;17.50;99.90;;;;;;5036134;28;20206;-83
2022/10/18 10:46:22;;;;;;;23.60;20.60;;;17.50;99.90;;;;;;5029693;28;20203;-81
2022/10/18 10:48:49;;;;;;;22.27;19.73;;;17.50;99.90;;;;;;5035007;28;20187;-86
2022/10/18 10:51:30;;;;;;;20.52;18.20;;;17.30;99.90;;;;;;5031041;28;20202;-83
2022/10/18 10:54:16;;;;;;;32.53;25.05;;;17.20;99.90;;;;;;5032585;28;20202;-85
2022/10/18 10:57:01;;;;;;;22.38;19.92;;;17.10;99.90;;;;;;5034459;28;20210;-86
2022/10/18 10:59:37;;;;;;;20.65;17.88;;;17.00;99.90;;;;;;5034573;28;20190;-85
2022/10/18 11:02:17;;;;;;;18.73;16.77;;;16.90;99.90;;;;;;5034678;28;20183;-85
2022/10/18 11:04:54;;;;;;;18.15;16.02;;;16.80;99.90;;;;;;5033928;28;20209;-84
2022/10/18 11:07:35;;;;;;;20.35;17.38;;;16.80;99.90;;;;;;5030667;28;20488;-82
2022/10/18 11:10:05;;;;;;;18.35;16.40;;;16.80;99.90;;;;;;5023670;28;20187;-81
2022/10/18 11:12:35;;;;;;;18.13;15.82;;;17.00;99.90;;;;;;5021676;28;20207;-82
2022/10/18 11:15:25;;;;;;;18.98;15.95;;;17.00;99.90;;;;;;5019978;28;20249;-84
2022/10/18 11:18:13;;;;;;;18.95;16.48;;;17.20;99.90;;;;;;5025555;28;20219;-84
2022/10/18 11:20:54;;;;;;;18.88;16.88;;;17.20;99.90;;;;;;5018732;28;20210;-82
2022/10/18 11:23:20;;;;;;;19.27;16.25;;;17.30;99.90;;;;;;5018894;28;20186;-83
2022/10/18 11:26:10;;;;;;;18.63;16.83;;;17.40;99.90;;;;;;5019831;28;20190;-82
2022/10/18 11:28:42;;;;;;;17.63;15.88;;;17.50;99.90;;;;;;5017869;28;20187;-83
2022/10/18 11:31:35;;;;;;;17.45;15.73;;;17.70;99.90;;;;;;5016411;28;20261;-81
2022/10/18 11:34:22;;;;;;;17.83;15.38;;;17.70;99.90;;;;;;5016665;28;20518;-81
2022/10/18 11:37:25;;;;;;;18.20;16.30;;;17.80;99.90;;;;;;5012345;28;20196;-83
2022/10/18 11:40:09;;;;;;;16.27;14.65;;;18.10;96.30;;;;;;5014898;28;20912;-83
2022/10/18 11:43:17;;;;;;;16.13;14.50;;;18.30;65.20;;;;;;5008655;28;20187;-81
2022/10/18 11:46:10;;;;;;;13.55;11.65;;;18.50;10.40;;;;;;5005437;28;20190;-81
2022/10/18 11:48:50;;;;;;;14.80;11.75;;;18.30;1.20;;;;;;5018590;28;20190;-81
2022/10/18 11:51:49;;;;;;;15.35;11.88;;;18.10;5.10;;;;;;5019249;28;20187;-81
2022/10/18 11:54:32;;;;;;;13.55;11.77;;;18.00;5.20;;;;;;5017861;28;20235;-81
2022/10/18 11:57:17;;;;;;;17.08;12.80;;;18.20;1.00;;;;;;5017741;28;20187;-83
2022/10/18 12:00:01;;;;;;;18.77;12.43;;;18.40;5.00;;;;;;5018965;28;20655;-82
2022/10/18 12:03:06;;;;;;;15.90;12.25;;;18.40;1.00;;;;;;5018584;28;20178;-82
2022/10/18 12:05:35;;;;;;;17.42;10.15;;;18.40;1.00;;;;;;5019605;28;20176;-82
2022/10/18 12:08:07;;;;;;;14.90;11.25;;;18.30;1.00;;;;;;5018601;28;20183;-82
2022/10/18 12:10:35;;;;;;;17.23;13.35;;;18.40;1.00;;;;;;5017467;28;20274;-80
2022/10/18 12:13:05;;;;;;;15.80;11.75;;;18.20;1.00;;;;;;5020301;28;20559;-80
2022/10/18 12:15:35;;;;;;;15.48;12.43;;;18.10;1.00;;;;;;5017364;28;20190;-81
2022/10/18 12:18:07;;;;;;;12.15;9.85;;;18.10;1.00;;;;;;5018506;28;20260;-83
2022/10/18 12:20:37;;;;;;;19.65;14.82;;;18.00;1.00;;;;;;5001777;28;20630;-82
2022/10/18 12:23:08;;;;;;;22.35;15.57;;;17.80;1.00;;;;;;5019020;28;20187;-82
2022/10/18 12:25:37;;;;;;;15.25;11.55;;;17.60;1.00;;;;;;5018126;28;20184;-83
2022/10/18 12:28:32;;;;;;;12.85;9.70;;;17.40;1.00;;;;;;5017342;28;20206;-83
2022/10/18 12:31:07;;;;;;;13.48;11.32;;;17.50;1.00;;;;;;5020060;28;20183;-83
2022/10/18 12:33:39;;;;;;;16.15;12.15;;;17.60;1.00;;;;;;5017140;28;20705;-86
2022/10/18 12:36:20;;;;;;;16.98;12.85;;;17.60;11.30;;;;;;5018570;28;20237;-85
2022/10/18 12:38:56;;;;;;;17.42;12.60;;;17.40;8.20;;;;;;5017310;28;20534;-83
2022/10/18 12:41:27;;;;;;;16.50;11.57;;;17.30;6.50;;;;;;5018790;28;20229;-84
2022/10/18 12:43:58;;;;;;;14.32;10.15;;;17.20;6.60;;;;;;5017161;28;20542;-82
2022/10/18 12:46:41;;;;;;;19.05;12.27;;;17.20;1.00;;;;;;5018389;28;20190;-83
2022/10/18 12:49:11;;;;;;;10.73;8.15;;;17.10;1.00;;;;;;5021347;28;20607;-81
2022/10/18 12:51:52;;;;;;;12.13;9.35;;;17.00;1.00;;;;;;5018573;28;20190;-87
2022/10/18 12:54:26;;;;;;;16.65;11.27;;;16.90;1.00;;;;;;5017019;28;20211;-82
2022/10/18 12:56:52;;;;;;;19.45;12.35;;;16.80;13.60;;;;;;5018046;28;20230;-83